createdAt,value
2019-05-09T00:00:53.975Z,979.02
2019-05-09T00:01:54.276Z,979.01
2019-05-09T00:02:54.127Z,979.03
2019-05-09T00:03:54.435Z,978.98
2019-05-09T00:04:53.928Z,978.98
2019-05-09T00:05:54.283Z,978.93
2019-05-09T00:06:54.464Z,978.98
2019-05-09T00:07:53.940Z,978.90
2019-05-09T00:08:53.888Z,979.00
2019-05-09T00:09:53.876Z,978.95
2019-05-09T00:10:53.860Z,978.92
2019-05-09T00:11:53.851Z,978.92
2019-05-09T00:12:54.110Z,978.92
2019-05-09T00:13:54.006Z,978.95
2019-05-09T00:14:54.094Z,978.90
2019-05-09T00:15:54.265Z,978.94
2019-05-09T00:16:53.797Z,978.92
2019-05-09T00:17:53.789Z,978.97
2019-05-09T00:18:54.272Z,978.96
2019-05-09T00:19:53.976Z,979.01
2019-05-09T00:20:54.047Z,979.00
2019-05-09T00:21:54.137Z,979.00
2019-05-09T00:22:53.977Z,978.97
2019-05-09T00:23:54.205Z,978.98
2019-05-09T00:24:54.039Z,978.98
2019-05-09T00:25:53.936Z,979.07
2019-05-09T00:26:53.694Z,978.99
2019-05-09T00:27:53.757Z,978.95
2019-05-09T00:28:53.667Z,978.99
2019-05-09T00:29:53.654Z,978.91
2019-05-09T00:30:54.153Z,978.91
2019-05-09T00:31:54.135Z,978.93
2019-05-09T00:32:53.627Z,978.93
2019-05-09T00:33:53.674Z,978.87
2019-05-09T00:34:53.607Z,978.92
2019-05-09T00:35:53.589Z,978.91
2019-05-09T00:36:54.050Z,978.91
2019-05-09T00:37:53.752Z,978.89
2019-05-09T00:38:53.784Z,978.89
2019-05-09T00:39:53.580Z,978.83
2019-05-09T00:40:58.600Z,978.84
2019-05-09T00:41:54.522Z,978.88
2019-05-09T00:42:53.514Z,978.82
2019-05-09T00:43:54.309Z,978.84
2019-05-09T00:44:53.491Z,978.84
2019-05-09T00:45:54.197Z,978.83
2019-05-09T00:46:53.632Z,978.81
2019-05-09T00:47:53.986Z,978.88
2019-05-09T00:48:53.447Z,978.87
2019-05-09T00:49:54.183Z,978.85
2019-05-09T00:50:54.443Z,978.89
2019-05-09T00:51:54.042Z,978.86
2019-05-09T00:52:53.818Z,978.88
2019-05-09T00:53:53.782Z,978.88
2019-05-09T00:54:53.382Z,978.88
2019-05-09T00:55:53.411Z,978.84
2019-05-09T00:56:53.939Z,978.83
2019-05-09T00:57:53.578Z,978.89
2019-05-09T00:58:53.722Z,978.87
2019-05-09T00:59:53.329Z,978.81
2019-05-09T01:00:53.418Z,978.82
2019-05-09T01:01:54.339Z,978.82
2019-05-09T01:02:54.219Z,978.78
2019-05-09T01:03:53.805Z,978.77
2019-05-09T01:04:53.292Z,978.78
2019-05-09T01:05:54.285Z,978.67
2019-05-09T01:06:54.013Z,978.68
2019-05-09T01:07:53.893Z,978.74
2019-05-09T01:08:53.793Z,978.72
2019-05-09T01:09:54.338Z,978.66
2019-05-09T01:11:08.239Z,978.69
2019-05-09T01:11:54.199Z,978.63
2019-05-09T01:12:54.197Z,978.67
2019-05-09T01:13:54.396Z,978.62
2019-05-09T01:14:53.884Z,978.62
2019-05-09T01:15:53.363Z,978.64
2019-05-09T01:16:53.631Z,978.60
2019-05-09T01:17:53.745Z,978.62
2019-05-09T01:18:54.364Z,978.60
2019-05-09T01:19:53.888Z,978.64
2019-05-09T01:20:53.213Z,978.60
2019-05-09T01:21:54.177Z,978.63
2019-05-09T01:22:54.050Z,978.64
2019-05-09T01:23:53.945Z,978.62
2019-05-09T01:24:53.434Z,978.66
2019-05-09T01:25:53.211Z,978.64
2019-05-09T01:26:54.246Z,978.69
2019-05-09T01:27:53.833Z,978.65
2019-05-09T01:28:53.807Z,978.66
2019-05-09T01:29:53.560Z,978.67
2019-05-09T01:30:53.264Z,978.61
2019-05-09T01:31:54.051Z,978.62
2019-05-09T01:32:53.958Z,978.64
2019-05-09T01:33:53.475Z,978.60
2019-05-09T01:34:53.110Z,978.62
2019-05-09T01:35:54.072Z,978.66
2019-05-09T01:36:54.017Z,978.62
2019-05-09T01:37:53.871Z,978.58
2019-05-09T01:38:53.957Z,978.69
2019-05-09T01:39:53.416Z,978.65
2019-05-09T01:40:53.368Z,978.64
2019-05-09T01:41:53.201Z,978.67
2019-05-09T01:42:53.799Z,978.67
2019-05-09T01:43:53.659Z,978.64
2019-05-09T01:44:53.363Z,978.63
2019-05-09T01:45:54.063Z,978.67
2019-05-09T01:46:54.034Z,978.70
2019-05-09T01:47:53.777Z,978.58
2019-05-09T01:48:53.904Z,978.59
2019-05-09T01:49:53.844Z,978.64
2019-05-09T01:50:53.782Z,978.60
2019-05-09T01:51:53.708Z,978.59
2019-05-09T01:52:53.358Z,978.63
2019-05-09T01:53:53.234Z,978.59
2019-05-09T01:54:54.132Z,978.59
2019-05-09T01:55:53.924Z,978.60
2019-05-09T01:56:53.754Z,978.60
2019-05-09T01:57:53.800Z,978.62
2019-05-09T01:58:53.824Z,978.57
2019-05-09T01:59:53.243Z,978.66
2019-05-09T02:00:54.042Z,978.63
2019-05-09T02:01:54.087Z,978.64
2019-05-09T02:02:54.046Z,978.61
2019-05-09T02:03:53.647Z,978.63
2019-05-09T02:04:53.312Z,978.64
2019-05-09T02:05:53.265Z,978.60
2019-05-09T02:06:53.744Z,978.62
2019-05-09T02:07:54.220Z,978.55
2019-05-09T02:08:54.550Z,978.56
2019-05-09T02:09:54.013Z,978.57
2019-05-09T02:10:54.221Z,978.59
2019-05-09T02:11:54.500Z,978.55
2019-05-09T02:12:53.797Z,978.59
2019-05-09T02:13:53.555Z,978.53
2019-05-09T02:14:54.234Z,978.49
2019-05-09T02:15:53.907Z,978.54
2019-05-09T02:16:53.707Z,978.68
2019-05-09T02:18:01.125Z,978.66
2019-05-09T02:18:53.550Z,978.62
2019-05-09T02:19:53.268Z,978.66
2019-05-09T02:20:53.283Z,978.72
2019-05-09T02:21:53.116Z,978.71
2019-05-09T02:22:54.272Z,978.69
2019-05-09T02:23:53.715Z,978.71
2019-05-09T02:24:53.491Z,978.72
2019-05-09T02:25:53.243Z,978.74
2019-05-09T02:26:53.338Z,978.69
2019-05-09T02:27:52.371Z,978.63
2019-05-09T02:28:53.796Z,978.64
2019-05-09T02:29:54.336Z,978.60
2019-05-09T02:30:54.877Z,978.60
2019-05-09T02:31:54.660Z,978.62
2019-05-09T02:32:54.651Z,978.56
2019-05-09T02:33:54.133Z,978.52
2019-05-09T02:34:54.731Z,978.48
2019-05-09T02:35:57.326Z,978.47
2019-05-09T02:36:53.324Z,978.51
2019-05-09T02:37:52.261Z,978.46
2019-05-09T02:38:52.251Z,978.49
2019-05-09T02:39:52.240Z,978.50
2019-05-09T02:40:52.229Z,978.49
2019-05-09T02:42:04.803Z,978.50
2019-05-09T02:42:53.264Z,978.50
2019-05-09T02:43:52.204Z,978.49
2019-05-09T02:44:52.188Z,978.48
2019-05-09T02:45:52.933Z,978.48
2019-05-09T02:46:52.169Z,978.46
2019-05-09T02:47:52.173Z,978.42
2019-05-09T02:48:52.347Z,978.40
2019-05-09T02:49:52.132Z,978.35
2019-05-09T02:50:52.141Z,978.35
2019-05-09T02:51:52.109Z,978.34
2019-05-09T02:52:52.099Z,978.34
2019-05-09T02:53:52.088Z,978.30
2019-05-09T02:54:52.124Z,978.31
2019-05-09T02:55:52.070Z,978.33
2019-05-09T02:56:52.059Z,978.26
2019-05-09T02:57:52.044Z,978.29
2019-05-09T02:58:52.033Z,978.34
2019-05-09T02:59:52.030Z,978.35
2019-05-09T03:00:52.055Z,978.36
2019-05-09T03:01:52.001Z,978.34
2019-05-09T03:02:52.007Z,978.32
2019-05-09T03:03:51.978Z,978.29
2019-05-09T03:04:51.968Z,978.28
2019-05-09T03:05:51.956Z,978.29
2019-05-09T03:06:52.139Z,978.25
2019-05-09T03:07:51.940Z,978.19
2019-05-09T03:08:51.941Z,978.18
2019-05-09T03:09:51.914Z,978.21
2019-05-09T03:10:51.908Z,978.18
2019-05-09T03:11:51.894Z,978.21
2019-05-09T03:12:51.931Z,978.21
2019-05-09T03:13:51.869Z,978.20
2019-05-09T03:14:51.872Z,978.19
2019-05-09T03:15:51.848Z,978.19
2019-05-09T03:16:51.841Z,978.21
2019-05-09T03:17:51.834Z,978.18
2019-05-09T03:18:51.848Z,978.13
2019-05-09T03:19:51.804Z,978.21
2019-05-09T03:20:51.809Z,978.15
2019-05-09T03:21:51.788Z,978.12
2019-05-09T03:22:51.773Z,978.13
2019-05-09T03:23:51.760Z,978.21
2019-05-09T03:24:51.792Z,978.21
2019-05-09T03:25:51.745Z,978.24
2019-05-09T03:26:51.744Z,978.26
2019-05-09T03:27:51.719Z,978.27
2019-05-09T03:28:51.704Z,978.26
2019-05-09T03:29:51.696Z,978.24
2019-05-09T03:30:51.743Z,978.27
2019-05-09T03:31:51.675Z,978.29
2019-05-09T03:32:51.677Z,978.28
2019-05-09T03:33:51.652Z,978.27
2019-05-09T03:34:51.639Z,978.25
2019-05-09T03:35:51.628Z,978.23
2019-05-09T03:36:51.669Z,978.22
2019-05-09T03:37:51.615Z,978.26
2019-05-09T03:38:51.619Z,978.21
2019-05-09T03:39:51.584Z,978.22
2019-05-09T03:40:51.576Z,978.19
2019-05-09T03:41:51.564Z,978.18
2019-05-09T03:42:51.596Z,978.21
2019-05-09T03:43:51.541Z,978.20
2019-05-09T03:44:51.552Z,978.15
2019-05-09T03:45:51.522Z,978.18
2019-05-09T03:46:51.512Z,978.20
2019-05-09T03:47:51.502Z,978.18
2019-05-09T03:48:51.518Z,978.21
2019-05-09T03:49:51.479Z,978.22
2019-05-09T03:50:51.477Z,978.26
2019-05-09T03:51:51.454Z,978.22
2019-05-09T03:52:51.443Z,978.23
2019-05-09T03:53:51.440Z,978.23
2019-05-09T03:54:51.470Z,978.28
2019-05-09T03:55:51.410Z,978.26
2019-05-09T03:56:51.420Z,978.26
2019-05-09T03:57:51.389Z,978.34
2019-05-09T03:58:51.379Z,978.31
2019-05-09T03:59:51.368Z,978.31
2019-05-09T04:00:51.405Z,978.28
2019-05-09T04:01:51.347Z,978.30
2019-05-09T04:02:51.354Z,978.30
2019-05-09T04:03:51.323Z,978.24
2019-05-09T04:04:51.317Z,978.24
2019-05-09T04:05:59.050Z,978.20
2019-05-09T04:06:52.347Z,978.17
2019-05-09T04:07:51.283Z,978.15
2019-05-09T04:08:53.947Z,978.17
2019-05-09T04:09:51.268Z,978.13
2019-05-09T04:10:51.278Z,978.17
2019-05-09T04:11:51.256Z,978.14
2019-05-09T04:12:55.812Z,978.18
2019-05-09T04:13:52.233Z,978.19
2019-05-09T04:14:51.208Z,978.15
2019-05-09T04:15:51.199Z,978.10
2019-05-09T04:16:51.188Z,978.11
2019-05-09T04:17:51.197Z,978.14
2019-05-09T04:18:51.248Z,978.09
2019-05-09T04:19:51.186Z,978.05
2019-05-09T04:20:51.140Z,978.08
2019-05-09T04:21:51.140Z,978.10
2019-05-09T04:22:51.120Z,978.10
2019-05-09T04:23:51.108Z,978.10
2019-05-09T04:24:51.145Z,978.10
2019-05-09T04:25:51.087Z,978.08
2019-05-09T04:26:51.079Z,978.10
2019-05-09T04:27:51.065Z,978.07
2019-05-09T04:28:51.052Z,978.10
2019-05-09T04:29:51.048Z,978.13
2019-05-09T04:30:51.070Z,978.11
2019-05-09T04:31:51.039Z,978.01
2019-05-09T04:32:51.043Z,978.02
2019-05-09T04:33:50.997Z,978.08
2019-05-09T04:34:51.005Z,978.03
2019-05-09T04:35:50.977Z,978.04
2019-05-09T04:36:51.176Z,978.01
2019-05-09T04:37:50.975Z,978.05
2019-05-09T04:38:50.944Z,978.03
2019-05-09T04:39:53.979Z,978.05
2019-05-09T04:40:51.942Z,977.98
2019-05-09T04:41:55.130Z,978.04
2019-05-09T04:42:51.943Z,978.06
2019-05-09T04:43:50.943Z,978.10
2019-05-09T04:44:57.642Z,978.06
2019-05-09T04:45:53.483Z,978.03
2019-05-09T04:46:54.034Z,977.97
2019-05-09T04:47:51.859Z,978.06
2019-05-09T04:48:54.073Z,978.05
2019-05-09T04:49:51.832Z,978.03
2019-05-09T04:50:50.812Z,978.05
2019-05-09T04:51:50.806Z,978.13
2019-05-09T04:52:50.792Z,978.08
2019-05-09T04:53:50.785Z,978.13
2019-05-09T04:54:50.830Z,978.17
2019-05-09T04:55:50.762Z,978.17
2019-05-09T04:56:53.665Z,978.21
2019-05-09T04:57:50.748Z,978.14
2019-05-09T04:58:50.745Z,978.21
2019-05-09T04:59:50.724Z,978.20
2019-05-09T05:00:50.795Z,978.19
2019-05-09T05:01:50.765Z,978.17
2019-05-09T05:02:50.710Z,978.17
2019-05-09T05:03:50.676Z,978.20
2019-05-09T05:04:50.661Z,978.26
2019-05-09T05:05:50.662Z,978.26
2019-05-09T05:06:50.695Z,978.26
2019-05-09T05:07:50.627Z,978.31
2019-05-09T05:08:50.618Z,978.26
2019-05-09T05:09:50.614Z,978.26
2019-05-09T05:10:50.599Z,978.35
2019-05-09T05:11:50.582Z,978.32
2019-05-09T05:12:50.605Z,978.34
2019-05-09T05:13:50.561Z,978.33
2019-05-09T05:14:50.552Z,978.34
2019-05-09T05:15:50.546Z,978.37
2019-05-09T05:16:53.117Z,978.34
2019-05-09T05:17:50.524Z,978.30
2019-05-09T05:18:50.576Z,978.34
2019-05-09T05:19:50.505Z,978.30
2019-05-09T05:20:50.533Z,978.32
2019-05-09T05:21:50.494Z,978.31
2019-05-09T05:22:50.471Z,978.32
2019-05-09T05:23:50.499Z,978.32
2019-05-09T05:24:50.480Z,978.29
2019-05-09T05:25:50.435Z,978.35
2019-05-09T05:26:50.436Z,978.34
2019-05-09T05:27:50.412Z,978.30
2019-05-09T05:28:50.423Z,978.31
2019-05-09T05:29:50.403Z,978.36
2019-05-09T05:30:50.435Z,978.35
2019-05-09T05:31:50.393Z,978.28
2019-05-09T05:32:50.390Z,978.32
2019-05-09T05:33:53.733Z,978.28
2019-05-09T05:34:50.336Z,978.28
2019-05-09T05:35:50.324Z,978.31
2019-05-09T05:36:50.368Z,978.31
2019-05-09T05:37:50.317Z,978.38
2019-05-09T05:38:50.291Z,978.36
2019-05-09T05:39:50.327Z,978.37
2019-05-09T05:40:50.276Z,978.39
2019-05-09T05:41:50.261Z,978.38
2019-05-09T05:42:50.289Z,978.40
2019-05-09T05:43:50.292Z,978.34
2019-05-09T05:44:50.226Z,978.38
2019-05-09T05:45:50.223Z,978.43
2019-05-09T05:46:50.934Z,978.42
2019-05-09T05:47:50.188Z,978.38
2019-05-09T05:48:50.246Z,978.41
2019-05-09T05:49:50.216Z,978.42
2019-05-09T05:50:50.178Z,978.44
2019-05-09T05:51:50.169Z,978.40
2019-05-09T05:52:50.153Z,978.40
2019-05-09T05:53:50.124Z,978.43
2019-05-09T05:54:50.174Z,978.36
2019-05-09T05:55:52.669Z,978.37
2019-05-09T05:56:50.092Z,978.34
2019-05-09T05:57:50.093Z,978.33
2019-05-09T05:58:50.138Z,978.30
2019-05-09T05:59:50.072Z,978.31
2019-05-09T06:00:50.099Z,978.29
2019-05-09T06:01:50.060Z,978.31
2019-05-09T06:02:50.063Z,978.31
2019-05-09T06:03:50.031Z,978.33
2019-05-09T06:04:50.032Z,978.27
2019-05-09T06:05:51.823Z,978.22
2019-05-09T06:06:50.055Z,978.31
2019-05-09T06:07:49.988Z,978.33
2019-05-09T06:08:49.993Z,978.38
2019-05-09T06:09:49.982Z,978.33
2019-05-09T06:10:49.971Z,978.38
2019-05-09T06:11:49.940Z,978.37
2019-05-09T06:12:49.968Z,978.33
2019-05-09T06:13:56.584Z,978.32
2019-05-09T06:14:50.892Z,978.29
2019-05-09T06:15:49.887Z,978.29
2019-05-09T06:16:49.875Z,978.26
2019-05-09T06:17:49.861Z,978.22
2019-05-09T06:18:49.894Z,978.21
2019-05-09T06:19:49.863Z,978.20
2019-05-09T06:20:49.831Z,978.22
2019-05-09T06:21:52.334Z,978.15
2019-05-09T06:22:49.889Z,978.20
2019-05-09T06:23:49.803Z,978.16
2019-05-09T06:24:49.870Z,978.20
2019-05-09T06:25:49.775Z,978.15
2019-05-09T06:26:49.769Z,978.14
2019-05-09T06:27:49.874Z,978.15
2019-05-09T06:28:49.781Z,978.10
2019-05-09T06:29:49.736Z,978.08
2019-05-09T06:30:49.782Z,978.15
2019-05-09T06:31:49.713Z,978.15
2019-05-09T06:32:49.705Z,978.14
2019-05-09T06:33:53.552Z,978.19
2019-05-09T06:34:49.744Z,978.18
2019-05-09T06:35:49.662Z,978.23
2019-05-09T06:36:49.681Z,978.20
2019-05-09T06:37:49.648Z,978.23
2019-05-09T06:38:49.641Z,978.25
2019-05-09T06:39:49.627Z,978.23
2019-05-09T06:40:49.891Z,978.20
2019-05-09T06:41:49.664Z,978.24
2019-05-09T06:42:49.726Z,978.26
2019-05-09T06:43:49.814Z,978.28
2019-05-09T06:44:49.569Z,978.28
2019-05-09T06:45:49.616Z,978.32
2019-05-09T06:46:49.573Z,978.27
2019-05-09T06:47:49.541Z,978.33
2019-05-09T06:48:49.583Z,978.31
2019-05-09T06:49:50.177Z,978.37
2019-05-09T06:50:49.501Z,978.34
2019-05-09T06:51:49.548Z,978.31
2019-05-09T06:52:49.480Z,978.25
2019-05-09T06:53:49.467Z,978.23
2019-05-09T06:54:49.523Z,978.17
2019-05-09T06:55:49.449Z,978.26
2019-05-09T06:56:49.480Z,978.23
2019-05-09T06:57:49.439Z,978.26
2019-05-09T06:58:49.429Z,978.25
2019-05-09T06:59:49.417Z,978.24
2019-05-09T07:00:49.431Z,978.24
2019-05-09T07:01:49.395Z,978.24
2019-05-09T07:02:49.377Z,978.24
2019-05-09T07:03:49.370Z,978.23
2019-05-09T07:04:49.370Z,978.25
2019-05-09T07:05:49.395Z,978.28
2019-05-09T07:06:49.384Z,978.19
2019-05-09T07:07:49.321Z,978.24
2019-05-09T07:08:49.347Z,978.26
2019-05-09T07:09:49.294Z,978.20
2019-05-09T07:10:49.291Z,978.21
2019-05-09T07:11:49.270Z,978.21
2019-05-09T07:12:49.299Z,978.17
2019-05-09T07:13:49.254Z,978.21
2019-05-09T07:14:49.262Z,978.19
2019-05-09T07:15:49.227Z,978.17
2019-05-09T07:16:49.218Z,978.10
2019-05-09T07:17:49.228Z,978.09
2019-05-09T07:18:49.238Z,978.07
2019-05-09T07:19:49.247Z,978.12
2019-05-09T07:20:49.186Z,978.09
2019-05-09T07:21:49.167Z,978.10
2019-05-09T07:22:49.152Z,978.09
2019-05-09T07:23:49.139Z,978.10
2019-05-09T07:24:49.192Z,978.05
2019-05-09T07:25:49.126Z,978.02
2019-05-09T07:26:49.107Z,978.03
2019-05-09T07:27:49.105Z,978.05
2019-05-09T07:28:49.091Z,978.04
2019-05-09T07:29:49.076Z,978.04
2019-05-09T07:30:49.112Z,978.06
2019-05-09T07:31:49.063Z,978.07
2019-05-09T07:32:49.049Z,978.07
2019-05-09T07:33:49.048Z,977.99
2019-05-09T07:34:49.033Z,978.02
2019-05-09T07:35:49.009Z,978.00
2019-05-09T07:36:49.052Z,977.97
2019-05-09T07:37:49.029Z,977.97
2019-05-09T07:38:48.971Z,977.91
2019-05-09T07:39:48.972Z,977.95
2019-05-09T07:40:48.953Z,977.91
2019-05-09T07:41:48.941Z,977.93
2019-05-09T07:42:48.996Z,977.89
2019-05-09T07:43:48.928Z,977.93
2019-05-09T07:44:52.187Z,977.88
2019-05-09T07:45:48.938Z,977.92
2019-05-09T07:46:48.881Z,977.92
2019-05-09T07:47:48.871Z,977.87
2019-05-09T07:48:48.896Z,977.87
2019-05-09T07:49:48.849Z,977.88
2019-05-09T07:50:48.850Z,977.90
2019-05-09T07:51:48.870Z,977.88
2019-05-09T07:52:48.843Z,977.83
2019-05-09T07:53:48.812Z,977.82
2019-05-09T07:54:48.854Z,977.85
2019-05-09T07:55:48.786Z,977.82
2019-05-09T07:56:48.832Z,977.89
2019-05-09T07:57:55.145Z,977.84
2019-05-09T07:58:49.759Z,977.85
2019-05-09T07:59:48.783Z,977.86
2019-05-09T08:00:48.760Z,977.82
2019-05-09T08:01:48.892Z,977.83
2019-05-09T08:02:48.708Z,977.85
2019-05-09T08:03:49.139Z,977.80
2019-05-09T08:04:49.109Z,977.80
2019-05-09T08:05:48.686Z,977.78
2019-05-09T08:06:48.806Z,977.72
2019-05-09T08:07:48.662Z,977.75
2019-05-09T08:08:48.643Z,977.82
2019-05-09T08:09:48.634Z,977.72
2019-05-09T08:10:48.653Z,977.75
2019-05-09T08:11:48.618Z,977.77
2019-05-09T08:12:48.629Z,977.75
2019-05-09T08:13:48.849Z,977.74
2019-05-09T08:15:06.680Z,977.76
2019-05-09T08:15:49.564Z,977.81
2019-05-09T08:16:48.617Z,977.72
2019-05-09T08:17:48.885Z,977.74
2019-05-09T08:18:48.603Z,977.71
2019-05-09T08:19:48.607Z,977.68
2019-05-09T08:20:48.511Z,977.70
2019-05-09T08:21:48.503Z,977.69
2019-05-09T08:22:57.148Z,977.68
2019-05-09T08:23:49.511Z,977.68
2019-05-09T08:24:48.492Z,977.69
2019-05-09T08:25:48.637Z,977.67
2019-05-09T08:26:48.471Z,977.70
2019-05-09T08:27:48.457Z,977.63
2019-05-09T08:28:48.446Z,977.63
2019-05-09T08:29:48.441Z,977.64
2019-05-09T08:30:48.566Z,977.68
2019-05-09T08:31:48.683Z,977.69
2019-05-09T08:32:48.464Z,977.69
2019-05-09T08:33:48.684Z,977.67
2019-05-09T08:34:48.433Z,977.72
2019-05-09T08:35:52.354Z,977.71
2019-05-09T08:36:48.342Z,977.69
2019-05-09T08:37:48.331Z,977.65
2019-05-09T08:38:48.316Z,977.65
2019-05-09T08:39:48.612Z,977.66
2019-05-09T08:40:48.651Z,977.66
2019-05-09T08:41:48.660Z,977.66
2019-05-09T08:42:48.347Z,977.72
2019-05-09T08:43:48.507Z,977.68
2019-05-09T08:44:48.357Z,977.63
2019-05-09T08:45:48.448Z,977.63
2019-05-09T08:46:48.301Z,977.66
2019-05-09T08:47:48.566Z,977.66
2019-05-09T08:48:48.692Z,977.63
2019-05-09T08:49:49.610Z,977.71
2019-05-09T08:50:48.399Z,977.67
2019-05-09T08:52:06.948Z,977.70
2019-05-09T08:52:49.211Z,977.67
2019-05-09T08:53:48.358Z,977.67
2019-05-09T08:54:48.626Z,977.74
2019-05-09T08:55:48.130Z,977.67
2019-05-09T08:56:48.130Z,977.72
2019-05-09T08:57:48.269Z,977.75
2019-05-09T08:58:48.606Z,977.71
2019-05-09T08:59:50.551Z,977.74
2019-05-09T09:00:49.045Z,977.69
2019-05-09T09:02:10.221Z,977.74
2019-05-09T09:02:49.079Z,977.72
2019-05-09T09:03:48.515Z,977.71
2019-05-09T09:04:48.932Z,977.71
2019-05-09T09:05:48.585Z,977.71
2019-05-09T09:06:48.326Z,977.70
2019-05-09T09:07:49.021Z,977.71
2019-05-09T09:08:48.423Z,977.75
2019-05-09T09:09:48.362Z,977.75
2019-05-09T09:10:48.871Z,977.71
2019-05-09T09:11:47.967Z,977.69
2019-05-09T09:12:48.028Z,977.73
2019-05-09T09:13:48.344Z,977.65
2019-05-09T09:14:48.014Z,977.73
2019-05-09T09:16:05.315Z,977.73
2019-05-09T09:16:48.982Z,977.69
2019-05-09T09:17:49.107Z,977.72
2019-05-09T09:18:48.261Z,977.65
2019-05-09T09:19:48.074Z,977.65
2019-05-09T09:20:48.539Z,977.67
2019-05-09T09:21:49.728Z,977.66
2019-05-09T09:22:48.172Z,977.65
2019-05-09T09:23:50.683Z,977.68
2019-05-09T09:24:48.306Z,977.63
2019-05-09T09:25:48.707Z,977.66
2019-05-09T09:26:48.144Z,977.68
2019-05-09T09:27:51.009Z,977.75
2019-05-09T09:28:48.410Z,977.73
2019-05-09T09:29:48.230Z,977.75
2019-05-09T09:30:48.568Z,977.78
2019-05-09T09:31:48.298Z,977.71
2019-05-09T09:32:48.060Z,977.68
2019-05-09T09:33:48.141Z,977.71
2019-05-09T09:34:48.469Z,977.66
2019-05-09T09:35:48.978Z,977.74
2019-05-09T09:36:48.129Z,977.72
2019-05-09T09:37:51.373Z,977.70
2019-05-09T09:38:48.194Z,977.75
2019-05-09T09:39:48.806Z,977.72
2019-05-09T09:40:47.938Z,977.71
2019-05-09T09:41:48.321Z,977.68
2019-05-09T09:42:48.989Z,977.73
2019-05-09T09:43:47.855Z,977.75
2019-05-09T09:44:48.144Z,977.71
2019-05-09T09:45:48.276Z,977.70
2019-05-09T09:46:48.607Z,977.73
2019-05-09T09:47:48.346Z,977.72
2019-05-09T09:48:48.176Z,977.68
2019-05-09T09:49:49.021Z,977.66
2019-05-09T09:50:51.424Z,977.68
2019-05-09T09:51:48.510Z,977.72
2019-05-09T09:52:49.175Z,977.69
2019-05-09T09:53:48.905Z,977.63
2019-05-09T09:54:48.178Z,977.68
2019-05-09T09:55:47.846Z,977.61
2019-05-09T09:56:47.931Z,977.62
2019-05-09T09:57:48.438Z,977.60
2019-05-09T09:58:48.317Z,977.60
2019-05-09T09:59:48.480Z,977.60
2019-05-09T10:00:48.453Z,977.62
2019-05-09T10:01:47.872Z,977.60
2019-05-09T10:02:48.211Z,977.61
2019-05-09T10:03:47.465Z,977.60
2019-05-09T10:04:47.407Z,977.58
2019-05-09T10:05:48.603Z,977.64
2019-05-09T10:06:48.243Z,977.61
2019-05-09T10:07:47.749Z,977.66
2019-05-09T10:08:49.040Z,977.66
2019-05-09T10:09:47.989Z,977.66
2019-05-09T10:10:48.359Z,977.68
2019-05-09T10:11:48.305Z,977.65
2019-05-09T10:12:49.415Z,977.62
2019-05-09T10:13:48.055Z,977.64
2019-05-09T10:14:47.269Z,977.56
2019-05-09T10:15:47.540Z,977.61
2019-05-09T10:16:47.867Z,977.59
2019-05-09T10:17:47.774Z,977.60
2019-05-09T10:18:47.221Z,977.55
2019-05-09T10:19:48.211Z,977.58
2019-05-09T10:20:48.494Z,977.59
2019-05-09T10:21:48.561Z,977.58
2019-05-09T10:22:58.562Z,977.52
2019-05-09T10:23:48.443Z,977.51
2019-05-09T10:24:47.847Z,977.56
2019-05-09T10:25:47.142Z,977.50
2019-05-09T10:26:47.132Z,977.52
2019-05-09T10:27:47.973Z,977.51
2019-05-09T10:28:48.582Z,977.49
2019-05-09T10:29:48.002Z,977.45
2019-05-09T10:30:48.480Z,977.45
2019-05-09T10:31:48.754Z,977.50
2019-05-09T10:32:47.654Z,977.43
2019-05-09T10:33:48.199Z,977.50
2019-05-09T10:34:48.789Z,977.45
2019-05-09T10:35:47.901Z,977.45
2019-05-09T10:36:47.624Z,977.49
2019-05-09T10:37:48.474Z,977.47
2019-05-09T10:38:47.786Z,977.47
2019-05-09T10:39:49.044Z,977.49
2019-05-09T10:40:48.462Z,977.44
2019-05-09T10:41:48.252Z,977.48
2019-05-09T10:42:48.291Z,977.50
2019-05-09T10:43:48.617Z,977.54
2019-05-09T10:44:48.872Z,977.52
2019-05-09T10:45:48.412Z,977.53
2019-05-09T10:46:56.397Z,977.58
2019-05-09T10:47:48.349Z,977.60
2019-05-09T10:48:47.938Z,977.59
2019-05-09T10:49:48.789Z,977.63
2019-05-09T10:50:54.295Z,977.66
2019-05-09T10:51:48.502Z,977.67
2019-05-09T10:52:48.205Z,977.66
2019-05-09T10:53:48.162Z,977.67
2019-05-09T10:54:46.873Z,977.67
2019-05-09T10:55:48.094Z,977.69
2019-05-09T10:56:48.761Z,977.71
2019-05-09T10:57:52.546Z,977.68
2019-05-09T10:58:48.388Z,977.69
2019-05-09T10:59:48.255Z,977.74
2019-05-09T11:00:48.341Z,977.78
2019-05-09T11:01:49.391Z,977.71
2019-05-09T11:02:48.366Z,977.68
2019-05-09T11:03:48.288Z,977.71
2019-05-09T11:04:49.075Z,977.69
2019-05-09T11:05:46.753Z,977.77
2019-05-09T11:06:46.682Z,977.71
2019-05-09T11:07:46.680Z,977.70
2019-05-09T11:08:47.642Z,977.65
2019-05-09T11:09:48.047Z,977.68
2019-05-09T11:10:47.475Z,977.71
2019-05-09T11:11:48.429Z,977.66
2019-05-09T11:12:47.862Z,977.67
2019-05-09T11:13:48.130Z,977.66
2019-05-09T11:14:48.405Z,977.70
2019-05-09T11:15:48.029Z,977.79
2019-05-09T11:16:51.121Z,977.80
2019-05-09T11:17:47.574Z,977.79
2019-05-09T11:18:48.217Z,977.77
2019-05-09T11:19:48.279Z,977.82
2019-05-09T11:20:46.542Z,977.75
2019-05-09T11:21:47.845Z,977.79
2019-05-09T11:22:46.519Z,977.79
2019-05-09T11:23:48.787Z,977.79
2019-05-09T11:24:50.954Z,977.82
2019-05-09T11:25:47.294Z,977.78
2019-05-09T11:26:48.140Z,977.80
2019-05-09T11:27:48.638Z,977.83
2019-05-09T11:28:47.458Z,977.77
2019-05-09T11:29:49.734Z,977.77
2019-05-09T11:30:47.651Z,977.81
2019-05-09T11:31:47.735Z,977.79
2019-05-09T11:32:48.080Z,977.86
2019-05-09T11:33:48.353Z,977.82
2019-05-09T11:34:48.649Z,977.82
2019-05-09T11:35:47.993Z,977.85
2019-05-09T11:36:46.357Z,977.83
2019-05-09T11:37:48.057Z,977.90
2019-05-09T11:38:49.112Z,977.84
2019-05-09T11:39:48.201Z,977.90
2019-05-09T11:40:48.210Z,977.88
2019-05-09T11:41:48.658Z,977.91
2019-05-09T11:42:48.283Z,977.96
2019-05-09T11:43:48.550Z,977.93
2019-05-09T11:44:46.274Z,977.93
2019-05-09T11:45:47.876Z,977.94
2019-05-09T11:46:47.741Z,977.98
2019-05-09T11:47:46.765Z,977.92
2019-05-09T11:48:46.232Z,977.97
2019-05-09T11:49:48.065Z,977.96
2019-05-09T11:50:47.710Z,977.98
2019-05-09T11:51:48.260Z,977.96
2019-05-09T11:52:48.923Z,978.06
2019-05-09T11:53:48.657Z,978.06
2019-05-09T11:54:48.215Z,978.07
2019-05-09T11:55:48.152Z,978.07
2019-05-09T11:56:48.143Z,978.07
2019-05-09T11:57:48.587Z,978.11
2019-05-09T11:58:48.191Z,978.14
2019-05-09T11:59:48.033Z,978.19
2019-05-09T12:00:48.114Z,978.16
2019-05-09T12:01:48.255Z,978.17
2019-05-09T12:02:46.068Z,978.17
2019-05-09T12:03:49.930Z,978.18
2019-05-09T12:04:48.692Z,978.20
2019-05-09T12:05:47.595Z,978.18
2019-05-09T12:06:46.023Z,978.18
2019-05-09T12:07:46.010Z,978.16
2019-05-09T12:08:48.322Z,978.21
2019-05-09T12:09:48.656Z,978.18
2019-05-09T12:10:45.985Z,978.16
2019-05-09T12:11:48.311Z,978.22
2019-05-09T12:12:47.798Z,978.21
2019-05-09T12:13:48.444Z,978.21
2019-05-09T12:14:48.224Z,978.17
2019-05-09T12:15:48.733Z,978.15
2019-05-09T12:16:47.998Z,978.17
2019-05-09T12:17:56.578Z,978.15
2019-05-09T12:18:48.767Z,978.17
2019-05-09T12:19:45.878Z,978.14
2019-05-09T12:20:48.273Z,978.13
2019-05-09T12:21:48.086Z,978.15
2019-05-09T12:22:48.323Z,978.18
2019-05-09T12:23:48.027Z,978.24
2019-05-09T12:24:47.987Z,978.22
2019-05-09T12:25:45.812Z,978.28
2019-05-09T12:26:48.183Z,978.25
2019-05-09T12:27:48.515Z,978.28
2019-05-09T12:28:48.410Z,978.23